createdAt,value
2022-11-05T00:02:34.158Z,8.11
2022-11-05T00:10:57.075Z,8.05
2022-11-05T00:19:20.101Z,8.10
2022-11-05T00:27:53.663Z,8.06
2022-11-05T00:36:16.689Z,7.99
2022-11-05T00:44:58.152Z,8.02
2022-11-05T00:53:21.196Z,8.00
2022-11-05T01:01:44.163Z,7.92
2022-11-05T01:10:07.953Z,7.98
2022-11-05T01:18:30.897Z,7.91
2022-11-05T01:26:53.860Z,7.77
2022-11-05T01:35:18.397Z,7.75
2022-11-05T01:43:54.668Z,7.65
2022-11-05T01:52:18.727Z,7.57
2022-11-05T02:00:43.231Z,7.58
2022-11-05T02:09:27.866Z,7.50
2022-11-05T02:17:59.911Z,7.49
2022-11-05T02:26:50.147Z,7.43
2022-11-05T02:35:32.401Z,7.37
2022-11-05T02:43:58.264Z,7.46
2022-11-05T02:52:51.639Z,7.45
2022-11-05T03:01:14.703Z,7.42
2022-11-05T03:09:48.080Z,7.46
2022-11-05T03:18:16.819Z,7.42
2022-11-05T03:26:47.198Z,7.39
2022-11-05T03:35:34.452Z,7.48
2022-11-05T03:44:01.899Z,7.47
2022-11-05T03:52:30.137Z,7.46
2022-11-05T04:00:53.311Z,7.49
2022-11-05T04:09:34.982Z,7.43
2022-11-05T04:17:59.255Z,7.43
2022-11-05T04:26:23.714Z,7.46
2022-11-05T04:34:46.694Z,7.43
2022-11-05T04:43:15.191Z,7.51
2022-11-05T04:51:38.432Z,7.53
2022-11-05T05:00:01.589Z,7.49
2022-11-05T05:08:24.512Z,7.57
2022-11-05T05:16:47.518Z,7.58
2022-11-05T05:25:10.506Z,7.52
2022-11-05T05:33:33.387Z,7.55
2022-11-05T05:41:56.320Z,7.54
2022-11-05T05:50:19.297Z,7.46
2022-11-05T05:58:48.293Z,7.51
2022-11-05T06:07:45.235Z,7.59
2022-11-05T06:16:08.652Z,7.65
2022-11-05T06:24:30.177Z,7.61
2022-11-05T06:32:52.131Z,7.49
2022-11-05T06:41:13.738Z,7.49
2022-11-05T06:49:35.846Z,7.45
2022-11-05T06:57:58.032Z,7.35
2022-11-05T07:06:19.745Z,7.45
2022-11-05T07:14:41.242Z,7.58
2022-11-05T07:23:10.167Z,7.70
2022-11-05T07:31:32.191Z,7.92
2022-11-05T07:39:56.956Z,8.08
2022-11-05T07:48:18.540Z,8.21
2022-11-05T07:56:40.185Z,8.43
2022-11-05T08:05:03.389Z,8.56
2022-11-05T08:13:24.903Z,8.53
2022-11-05T08:21:46.537Z,8.66
2022-11-05T08:30:08.939Z,8.65
2022-11-05T08:38:30.434Z,8.49
2022-11-05T08:46:52.082Z,8.54
2022-11-05T08:55:18.186Z,8.57
2022-11-05T09:03:39.781Z,8.54
2022-11-05T09:12:16.635Z,8.58
2022-11-05T09:20:39.470Z,8.66
2022-11-05T09:29:00.974Z,8.65
2022-11-05T09:37:22.644Z,8.71
2022-11-05T09:45:46.601Z,8.69
2022-11-05T09:54:11.144Z,8.64
2022-11-05T10:02:36.162Z,8.59
2022-11-05T10:11:15.936Z,8.56
2022-11-05T10:19:55.155Z,8.53
2022-11-05T10:28:20.034Z,8.49
2022-11-05T10:36:41.758Z,8.52
2022-11-05T10:45:15.493Z,8.48
2022-11-05T10:53:38.646Z,8.49
2022-11-05T11:02:22.441Z,8.47
2022-11-05T11:10:50.887Z,8.26
2022-11-05T11:19:33.363Z,8.25
2022-11-05T11:27:55.898Z,8.22
2022-11-05T11:36:23.921Z,8.16
2022-11-05T11:44:47.465Z,8.27
2022-11-05T11:53:35.430Z,8.33
2022-11-05T12:02:15.673Z,8.44
2022-11-05T12:10:42.761Z,8.54
2022-11-05T12:19:40.372Z,8.46
2022-11-05T12:29:04.615Z,8.34
2022-11-05T12:38:03.943Z,8.31
2022-11-05T12:46:43.988Z,8.29
2022-11-05T12:55:19.684Z,8.24
2022-11-05T13:03:54.414Z,8.31
2022-11-05T13:12:20.610Z,8.27
2022-11-05T13:20:48.586Z,8.13
2022-11-05T13:29:27.459Z,8.13
2022-11-05T13:38:14.617Z,8.12
2022-11-05T13:46:39.469Z,8.07
2022-11-05T13:55:14.123Z,8.06
2022-11-05T14:03:36.737Z,8.09
